sensor_id;sensor_type;location;lat;lon;timestamp;P1;durP1;ratioP1;P2;durP2;ratioP2
62848;SDS011;48941;49.516;8.286;2023-03-24T00:00:35;8.68;;;5.85;;
62848;SDS011;48941;49.516;8.286;2023-03-24T00:03:03;12.10;;;5.90;;
62848;SDS011;48941;49.516;8.286;2023-03-24T00:05:31;7.38;;;5.18;;
62848;SDS011;48941;49.516;8.286;2023-03-24T00:07:59;9.88;;;5.97;;
62848;SDS011;48941;49.516;8.286;2023-03-24T00:10:29;7.13;;;5.60;;
62848;SDS011;48941;49.516;8.286;2023-03-24T00:13:08;9.52;;;6.13;;
62848;SDS011;48941;49.516;8.286;2023-03-24T00:15:36;8.38;;;6.47;;
62848;SDS011;48941;49.516;8.286;2023-03-24T00:18:05;9.15;;;5.85;;
62848;SDS011;48941;49.516;8.286;2023-03-24T00:20:36;9.57;;;6.13;;
62848;SDS011;48941;49.516;8.286;2023-03-24T00:23:03;12.20;;;6.50;;
62848;SDS011;48941;49.516;8.286;2023-03-24T00:25:31;9.52;;;6.05;;
62848;SDS011;48941;49.516;8.286;2023-03-24T00:28:02;9.13;;;6.25;;
62848;SDS011;48941;49.516;8.286;2023-03-24T00:30:32;10.10;;;6.18;;
62848;SDS011;48941;49.516;8.286;2023-03-24T00:33:01;7.32;;;5.75;;
62848;SDS011;48941;49.516;8.286;2023-03-24T00:35:29;9.77;;;5.72;;
62848;SDS011;48941;49.516;8.286;2023-03-24T00:49:19;10.70;;;5.65;;
62848;SDS011;48941;49.516;8.286;2023-03-24T00:52:07;9.43;;;7.25;;
62848;SDS011;48941;49.516;8.286;2023-03-24T00:54:36;8.40;;;5.85;;
62848;SDS011;48941;49.516;8.286;2023-03-24T00:57:05;13.35;;;5.97;;
62848;SDS011;48941;49.516;8.286;2023-03-24T00:59:33;8.95;;;6.03;;
62848;SDS011;48941;49.516;8.286;2023-03-24T01:02:07;10.05;;;6.10;;
62848;SDS011;48941;49.516;8.286;2023-03-24T01:04:38;11.30;;;6.00;;
62848;SDS011;48941;49.516;8.286;2023-03-24T01:07:06;10.98;;;5.60;;
62848;SDS011;48941;49.516;8.286;2023-03-24T01:09:36;6.65;;;4.93;;
62848;SDS011;48941;49.516;8.286;2023-03-24T01:12:04;6.35;;;4.78;;
62848;SDS011;48941;49.516;8.286;2023-03-24T01:14:32;6.45;;;4.80;;
62848;SDS011;48941;49.516;8.286;2023-03-24T01:17:00;7.85;;;5.20;;
62848;SDS011;48941;49.516;8.286;2023-03-24T01:19:28;8.00;;;5.07;;
62848;SDS011;48941;49.516;8.286;2023-03-24T01:21:59;8.27;;;4.95;;
62848;SDS011;48941;49.516;8.286;2023-03-24T01:24:27;11.15;;;5.05;;
62848;SDS011;48941;49.516;8.286;2023-03-24T01:26:56;8.60;;;4.72;;
62848;SDS011;48941;49.516;8.286;2023-03-24T01:29:24;8.90;;;4.75;;
62848;SDS011;48941;49.516;8.286;2023-03-24T01:31:52;6.15;;;4.15;;
62848;SDS011;48941;49.516;8.286;2023-03-24T01:34:20;10.13;;;4.70;;
62848;SDS011;48941;49.516;8.286;2023-03-24T01:36:48;5.65;;;4.20;;
62848;SDS011;48941;49.516;8.286;2023-03-24T01:39:17;4.88;;;4.35;;
62848;SDS011;48941;49.516;8.286;2023-03-24T01:41:44;6.57;;;4.47;;
62848;SDS011;48941;49.516;8.286;2023-03-24T01:44:22;6.95;;;4.80;;
62848;SDS011;48941;49.516;8.286;2023-03-24T01:46:55;6.15;;;4.60;;
62848;SDS011;48941;49.516;8.286;2023-03-24T01:49:24;7.10;;;5.10;;
62848;SDS011;48941;49.516;8.286;2023-03-24T01:51:57;10.10;;;5.28;;
62848;SDS011;48941;49.516;8.286;2023-03-24T01:54:29;8.75;;;5.35;;
62848;SDS011;48941;49.516;8.286;2023-03-24T01:57:00;9.02;;;5.57;;
62848;SDS011;48941;49.516;8.286;2023-03-24T02:02:03;9.55;;;4.93;;
62848;SDS011;48941;49.516;8.286;2023-03-24T02:04:35;7.47;;;5.05;;
62848;SDS011;48941;49.516;8.286;2023-03-24T02:07:07;6.15;;;4.55;;
62848;SDS011;48941;49.516;8.286;2023-03-24T02:09:40;7.43;;;4.80;;
62848;SDS011;48941;49.516;8.286;2023-03-24T02:12:08;8.20;;;4.80;;
62848;SDS011;48941;49.516;8.286;2023-03-24T02:14:35;6.30;;;4.50;;
62848;SDS011;48941;49.516;8.286;2023-03-24T02:17:11;5.38;;;4.45;;
62848;SDS011;48941;49.516;8.286;2023-03-24T02:28:57;9.27;;;4.82;;
62848;SDS011;48941;49.516;8.286;2023-03-24T02:31:45;7.90;;;5.00;;
62848;SDS011;48941;49.516;8.286;2023-03-24T02:37:50;5.53;;;4.65;;
62848;SDS011;48941;49.516;8.286;2023-03-24T02:40:30;7.65;;;4.75;;
62848;SDS011;48941;49.516;8.286;2023-03-24T02:43:03;6.47;;;5.20;;
62848;SDS011;48941;49.516;8.286;2023-03-24T02:45:42;7.88;;;4.88;;
62848;SDS011;48941;49.516;8.286;2023-03-24T02:48:21;6.45;;;4.40;;
62848;SDS011;48941;49.516;8.286;2023-03-24T02:50:55;7.57;;;5.00;;
62848;SDS011;48941;49.516;8.286;2023-03-24T02:53:31;5.80;;;4.38;;
62848;SDS011;48941;49.516;8.286;2023-03-24T02:56:07;6.43;;;4.25;;
62848;SDS011;48941;49.516;8.286;2023-03-24T02:58:39;7.40;;;4.72;;
62848;SDS011;48941;49.516;8.286;2023-03-24T03:01:14;7.85;;;4.30;;
62848;SDS011;48941;49.516;8.286;2023-03-24T03:03:58;5.13;;;3.85;;
62848;SDS011;48941;49.516;8.286;2023-03-24T03:06:29;5.32;;;4.00;;
62848;SDS011;48941;49.516;8.286;2023-03-24T03:09:02;7.15;;;3.88;;
62848;SDS011;48941;49.516;8.286;2023-03-24T03:11:35;5.25;;;3.80;;
62848;SDS011;48941;49.516;8.286;2023-03-24T03:14:05;5.68;;;3.88;;
62848;SDS011;48941;49.516;8.286;2023-03-24T03:19:10;6.35;;;3.90;;
62848;SDS011;48941;49.516;8.286;2023-03-24T03:21:43;4.88;;;3.53;;
62848;SDS011;48941;49.516;8.286;2023-03-24T03:24:16;5.93;;;4.03;;
62848;SDS011;48941;49.516;8.286;2023-03-24T03:26:55;5.07;;;3.72;;
62848;SDS011;48941;49.516;8.286;2023-03-24T03:29:28;5.05;;;3.75;;
62848;SDS011;48941;49.516;8.286;2023-03-24T03:32:02;4.55;;;3.90;;
62848;SDS011;48941;49.516;8.286;2023-03-24T03:34:35;4.70;;;3.55;;
62848;SDS011;48941;49.516;8.286;2023-03-24T03:37:08;5.30;;;3.30;;
62848;SDS011;48941;49.516;8.286;2023-03-24T03:39:47;5.93;;;3.67;;
62848;SDS011;48941;49.516;8.286;2023-03-24T03:42:19;3.93;;;3.00;;
62848;SDS011;48941;49.516;8.286;2023-03-24T03:44:48;4.82;;;3.15;;
62848;SDS011;48941;49.516;8.286;2023-03-24T03:47:16;5.88;;;3.20;;
62848;SDS011;48941;49.516;8.286;2023-03-24T03:49:46;5.30;;;3.22;;
62848;SDS011;48941;49.516;8.286;2023-03-24T03:52:14;4.30;;;3.00;;
62848;SDS011;48941;49.516;8.286;2023-03-24T03:54:43;5.82;;;3.13;;
62848;SDS011;48941;49.516;8.286;2023-03-24T03:57:11;8.38;;;3.28;;
62848;SDS011;48941;49.516;8.286;2023-03-24T03:59:42;8.75;;;2.97;;
62848;SDS011;48941;49.516;8.286;2023-03-24T04:02:22;9.35;;;3.25;;
62848;SDS011;48941;49.516;8.286;2023-03-24T04:05:09;6.32;;;3.00;;
62848;SDS011;48941;49.516;8.286;2023-03-24T04:07:58;3.25;;;2.67;;
62848;SDS011;48941;49.516;8.286;2023-03-24T04:10:39;6.10;;;2.70;;
62848;SDS011;48941;49.516;8.286;2023-03-24T04:13:27;4.13;;;3.20;;
62848;SDS011;48941;49.516;8.286;2023-03-24T04:16:06;4.97;;;3.40;;
62848;SDS011;48941;49.516;8.286;2023-03-24T04:18:44;5.57;;;3.25;;
62848;SDS011;48941;49.516;8.286;2023-03-24T04:21:28;4.55;;;3.33;;
62848;SDS011;48941;49.516;8.286;2023-03-24T04:24:11;3.92;;;3.50;;
62848;SDS011;48941;49.516;8.286;2023-03-24T04:26:53;3.45;;;3.00;;
62848;SDS011;48941;49.516;8.286;2023-03-24T04:29:29;4.97;;;3.35;;
62848;SDS011;48941;49.516;8.286;2023-03-24T04:32:11;3.92;;;3.33;;
62848;SDS011;48941;49.516;8.286;2023-03-24T04:34:45;4.78;;;3.60;;
62848;SDS011;48941;49.516;8.286;2023-03-24T04:37:20;3.60;;;3.10;;
62848;SDS011;48941;49.516;8.286;2023-03-24T04:39:51;6.40;;;3.15;;
62848;SDS011;48941;49.516;8.286;2023-03-24T04:42:24;6.60;;;3.63;;
62848;SDS011;48941;49.516;8.286;2023-03-24T04:44:57;4.95;;;3.10;;
62848;SDS011;48941;49.516;8.286;2023-03-24T04:47:28;4.65;;;3.20;;
62848;SDS011;48941;49.516;8.286;2023-03-24T04:49:59;3.90;;;3.28;;
62848;SDS011;48941;49.516;8.286;2023-03-24T04:52:28;4.18;;;3.30;;
62848;SDS011;48941;49.516;8.286;2023-03-24T04:54:56;3.85;;;3.38;;
62848;SDS011;48941;49.516;8.286;2023-03-24T04:57:24;6.93;;;3.53;;
62848;SDS011;48941;49.516;8.286;2023-03-24T04:59:52;6.43;;;3.90;;
62848;SDS011;48941;49.516;8.286;2023-03-24T05:02:19;4.13;;;3.20;;
62848;SDS011;48941;49.516;8.286;2023-03-24T05:04:48;4.05;;;3.30;;
62848;SDS011;48941;49.516;8.286;2023-03-24T05:07:16;4.13;;;3.58;;
62848;SDS011;48941;49.516;8.286;2023-03-24T05:09:44;4.13;;;3.30;;
62848;SDS011;48941;49.516;8.286;2023-03-24T05:12:12;3.90;;;3.50;;
62848;SDS011;48941;49.516;8.286;2023-03-24T05:14:40;6.57;;;3.25;;
62848;SDS011;48941;49.516;8.286;2023-03-24T05:17:08;5.78;;;3.03;;
62848;SDS011;48941;49.516;8.286;2023-03-24T05:19:35;4.93;;;3.47;;
62848;SDS011;48941;49.516;8.286;2023-03-24T05:22:04;4.05;;;3.00;;
62848;SDS011;48941;49.516;8.286;2023-03-24T05:24:33;3.75;;;3.00;;
62848;SDS011;48941;49.516;8.286;2023-03-24T05:27:01;3.95;;;2.80;;
62848;SDS011;48941;49.516;8.286;2023-03-24T05:29:28;4.40;;;2.70;;
62848;SDS011;48941;49.516;8.286;2023-03-24T05:31:56;3.25;;;2.60;;
62848;SDS011;48941;49.516;8.286;2023-03-24T05:34:24;3.83;;;2.80;;
62848;SDS011;48941;49.516;8.286;2023-03-24T05:36:52;4.15;;;2.75;;
62848;SDS011;48941;49.516;8.286;2023-03-24T05:39:21;4.53;;;2.50;;
62848;SDS011;48941;49.516;8.286;2023-03-24T05:41:49;4.03;;;2.92;;
62848;SDS011;48941;49.516;8.286;2023-03-24T05:44:16;3.95;;;2.70;;
62848;SDS011;48941;49.516;8.286;2023-03-24T05:46:45;2.70;;;2.50;;
62848;SDS011;48941;49.516;8.286;2023-03-24T05:49:13;3.05;;;2.55;;
62848;SDS011;48941;49.516;8.286;2023-03-24T05:51:40;2.65;;;2.40;;
62848;SDS011;48941;49.516;8.286;2023-03-24T05:54:09;2.95;;;2.20;;
62848;SDS011;48941;49.516;8.286;2023-03-24T05:56:38;2.90;;;2.50;;
62848;SDS011;48941;49.516;8.286;2023-03-24T05:59:05;2.95;;;2.65;;
62848;SDS011;48941;49.516;8.286;2023-03-24T06:01:33;3.78;;;2.47;;
62848;SDS011;48941;49.516;8.286;2023-03-24T06:04:01;2.50;;;2.30;;
62848;SDS011;48941;49.516;8.286;2023-03-24T06:06:29;2.40;;;2.20;;
62848;SDS011;48941;49.516;8.286;2023-03-24T06:08:57;2.85;;;2.30;;
62848;SDS011;48941;49.516;8.286;2023-03-24T06:11:27;3.63;;;2.67;;
62848;SDS011;48941;49.516;8.286;2023-03-24T06:13:56;2.80;;;2.25;;
62848;SDS011;48941;49.516;8.286;2023-03-24T06:16:25;2.58;;;2.38;;
62848;SDS011;48941;49.516;8.286;2023-03-24T06:18:53;2.90;;;2.20;;
62848;SDS011;48941;49.516;8.286;2023-03-24T06:21:21;4.68;;;2.55;;
62848;SDS011;48941;49.516;8.286;2023-03-24T06:23:59;3.58;;;2.45;;
62848;SDS011;48941;49.516;8.286;2023-03-24T06:26:28;3.80;;;2.58;;
62848;SDS011;48941;49.516;8.286;2023-03-24T06:28:58;2.50;;;2.30;;
62848;SDS011;48941;49.516;8.286;2023-03-24T06:31:27;2.55;;;1.98;;
62848;SDS011;48941;49.516;8.286;2023-03-24T06:33:58;3.03;;;2.00;;
62848;SDS011;48941;49.516;8.286;2023-03-24T06:36:26;2.60;;;2.17;;
62848;SDS011;48941;49.516;8.286;2023-03-24T06:38:54;3.85;;;2.28;;
62848;SDS011;48941;49.516;8.286;2023-03-24T06:41:22;3.90;;;2.45;;
62848;SDS011;48941;49.516;8.286;2023-03-24T06:43:50;2.90;;;2.60;;
62848;SDS011;48941;49.516;8.286;2023-03-24T06:46:19;5.97;;;2.95;;
62848;SDS011;48941;49.516;8.286;2023-03-24T06:48:47;4.78;;;2.80;;
62848;SDS011;48941;49.516;8.286;2023-03-24T06:51:15;4.03;;;2.97;;
62848;SDS011;48941;49.516;8.286;2023-03-24T06:53:43;3.55;;;3.05;;
62848;SDS011;48941;49.516;8.286;2023-03-24T06:56:11;4.38;;;2.90;;
62848;SDS011;48941;49.516;8.286;2023-03-24T06:58:42;3.00;;;2.67;;
62848;SDS011;48941;49.516;8.286;2023-03-24T07:01:10;3.90;;;2.50;;
62848;SDS011;48941;49.516;8.286;2023-03-24T07:03:41;3.33;;;2.92;;
62848;SDS011;48941;49.516;8.286;2023-03-24T07:06:10;3.67;;;2.67;;
62848;SDS011;48941;49.516;8.286;2023-03-24T07:08:37;5.53;;;2.97;;
62848;SDS011;48941;49.516;8.286;2023-03-24T07:11:06;5.43;;;3.25;;
62848;SDS011;48941;49.516;8.286;2023-03-24T07:13:35;3.30;;;2.80;;
62848;SDS011;48941;49.516;8.286;2023-03-24T07:16:03;3.33;;;2.85;;
62848;SDS011;48941;49.516;8.286;2023-03-24T07:18:32;4.63;;;2.70;;
62848;SDS011;48941;49.516;8.286;2023-03-24T07:21:01;4.03;;;2.85;;
62848;SDS011;48941;49.516;8.286;2023-03-24T07:23:29;3.72;;;2.85;;
62848;SDS011;48941;49.516;8.286;2023-03-24T07:25:58;4.03;;;3.10;;
62848;SDS011;48941;49.516;8.286;2023-03-24T07:28:26;3.70;;;3.00;;
62848;SDS011;48941;49.516;8.286;2023-03-24T07:30:53;3.22;;;2.92;;
62848;SDS011;48941;49.516;8.286;2023-03-24T07:33:22;4.97;;;3.10;;
62848;SDS011;48941;49.516;8.286;2023-03-24T07:35:52;5.05;;;2.60;;
62848;SDS011;48941;49.516;8.286;2023-03-24T07:38:22;3.17;;;2.83;;
62848;SDS011;48941;49.516;8.286;2023-03-24T07:40:50;4.88;;;2.90;;
62848;SDS011;48941;49.516;8.286;2023-03-24T07:43:18;3.15;;;2.70;;
62848;SDS011;48941;49.516;8.286;2023-03-24T07:45:47;3.65;;;2.88;;
62848;SDS011;48941;49.516;8.286;2023-03-24T07:48:15;3.70;;;3.28;;
62848;SDS011;48941;49.516;8.286;2023-03-24T07:50:43;3.30;;;2.95;;
62848;SDS011;48941;49.516;8.286;2023-03-24T07:53:11;3.55;;;3.00;;
62848;SDS011;48941;49.516;8.286;2023-03-24T07:55:45;6.97;;;3.10;;
62848;SDS011;48941;49.516;8.286;2023-03-24T07:58:14;3.17;;;2.80;;
62848;SDS011;48941;49.516;8.286;2023-03-24T08:00:42;3.58;;;2.70;;
62848;SDS011;48941;49.516;8.286;2023-03-24T08:03:10;4.50;;;3.00;;
62848;SDS011;48941;49.516;8.286;2023-03-24T08:05:41;3.88;;;3.05;;
62848;SDS011;48941;49.516;8.286;2023-03-24T08:08:10;6.55;;;3.20;;
62848;SDS011;48941;49.516;8.286;2023-03-24T08:10:38;5.07;;;3.40;;
62848;SDS011;48941;49.516;8.286;2023-03-24T08:13:07;3.88;;;3.42;;
62848;SDS011;48941;49.516;8.286;2023-03-24T08:15:35;5.13;;;3.50;;
62848;SDS011;48941;49.516;8.286;2023-03-24T08:18:04;4.93;;;3.83;;
62848;SDS011;48941;49.516;8.286;2023-03-24T08:20:32;4.45;;;3.88;;
62848;SDS011;48941;49.516;8.286;2023-03-24T08:23:00;5.72;;;3.88;;
62848;SDS011;48941;49.516;8.286;2023-03-24T08:25:30;3.78;;;3.42;;
62848;SDS011;48941;49.516;8.286;2023-03-24T08:27:58;8.82;;;3.90;;
62848;SDS011;48941;49.516;8.286;2023-03-24T08:30:28;4.97;;;3.38;;
62848;SDS011;48941;49.516;8.286;2023-03-24T08:32:56;4.85;;;3.78;;
62848;SDS011;48941;49.516;8.286;2023-03-24T08:35:26;6.07;;;3.50;;
62848;SDS011;48941;49.516;8.286;2023-03-24T08:37:57;4.65;;;3.60;;
62848;SDS011;48941;49.516;8.286;2023-03-24T08:40:27;5.60;;;3.58;;
62848;SDS011;48941;49.516;8.286;2023-03-24T08:42:57;6.13;;;3.70;;
62848;SDS011;48941;49.516;8.286;2023-03-24T08:45:28;5.35;;;3.70;;
62848;SDS011;48941;49.516;8.286;2023-03-24T08:47:59;5.47;;;3.20;;
62848;SDS011;48941;49.516;8.286;2023-03-24T08:50:31;2.60;;;2.30;;
62848;SDS011;48941;49.516;8.286;2023-03-24T08:53:01;5.75;;;3.00;;
62848;SDS011;48941;49.516;8.286;2023-03-24T08:55:30;2.28;;;2.08;;
62848;SDS011;48941;49.516;8.286;2023-03-24T08:57:58;2.97;;;2.15;;
62848;SDS011;48941;49.516;8.286;2023-03-24T09:00:28;2.20;;;2.00;;
62848;SDS011;48941;49.516;8.286;2023-03-24T09:02:55;2.08;;;1.90;;
62848;SDS011;48941;49.516;8.286;2023-03-24T09:05:24;2.53;;;2.00;;
62848;SDS011;48941;49.516;8.286;2023-03-24T09:08:09;3.15;;;2.10;;
62848;SDS011;48941;49.516;8.286;2023-03-24T09:10:37;3.88;;;1.80;;
62848;SDS011;48941;49.516;8.286;2023-03-24T09:13:06;2.20;;;2.00;;
62848;SDS011;48941;49.516;8.286;2023-03-24T09:15:35;2.00;;;1.80;;
62848;SDS011;48941;49.516;8.286;2023-03-24T09:18:03;2.00;;;1.80;;
62848;SDS011;48941;49.516;8.286;2023-03-24T09:20:31;2.60;;;1.77;;
62848;SDS011;48941;49.516;8.286;2023-03-24T09:22:59;1.90;;;1.80;;
62848;SDS011;48941;49.516;8.286;2023-03-24T09:25:27;2.65;;;1.83;;
62848;SDS011;48941;49.516;8.286;2023-03-24T09:27:55;1.92;;;1.70;;
62848;SDS011;48941;49.516;8.286;2023-03-24T09:30:23;2.22;;;1.77;;
62848;SDS011;48941;49.516;8.286;2023-03-24T09:32:52;2.13;;;1.77;;
62848;SDS011;48941;49.516;8.286;2023-03-24T09:35:24;1.98;;;1.75;;
62848;SDS011;48941;49.516;8.286;2023-03-24T09:37:53;2.55;;;1.83;;
62848;SDS011;48941;49.516;8.286;2023-03-24T09:40:22;1.63;;;1.52;;
62848;SDS011;48941;49.516;8.286;2023-03-24T09:42:52;1.80;;;1.70;;
62848;SDS011;48941;49.516;8.286;2023-03-24T09:45:25;1.80;;;1.70;;
62848;SDS011;48941;49.516;8.286;2023-03-24T09:47:56;2.20;;;1.65;;
62848;SDS011;48941;49.516;8.286;2023-03-24T09:50:28;1.70;;;1.60;;
62848;SDS011;48941;49.516;8.286;2023-03-24T09:53:03;1.50;;;1.40;;
62848;SDS011;48941;49.516;8.286;2023-03-24T09:55:36;1.42;;;1.40;;
62848;SDS011;48941;49.516;8.286;2023-03-24T09:58:06;1.83;;;1.50;;
62848;SDS011;48941;49.516;8.286;2023-03-24T10:00:35;1.60;;;1.50;;
62848;SDS011;48941;49.516;8.286;2023-03-24T10:03:11;1.40;;;1.30;;
62848;SDS011;48941;49.516;8.286;2023-03-24T10:05:47;3.17;;;1.50;;
62848;SDS011;48941;49.516;8.286;2023-03-24T10:08:24;1.58;;;1.48;;
62848;SDS011;48941;49.516;8.286;2023-03-24T10:10:58;1.60;;;1.50;;
62848;SDS011;48941;49.516;8.286;2023-03-24T10:13:31;1.70;;;1.60;;
62848;SDS011;48941;49.516;8.286;2023-03-24T10:16:11;2.13;;;1.23;;
62848;SDS011;48941;49.516;8.286;2023-03-24T10:18:48;1.60;;;1.50;;
62848;SDS011;48941;49.516;8.286;2023-03-24T10:21:23;1.50;;;1.40;;
62848;SDS011;48941;49.516;8.286;2023-03-24T10:23:53;1.60;;;1.50;;
62848;SDS011;48941;49.516;8.286;2023-03-24T10:26:30;1.73;;;1.50;;
62848;SDS011;48941;49.516;8.286;2023-03-24T10:29:10;1.98;;;1.83;;
62848;SDS011;48941;49.516;8.286;2023-03-24T10:31:49;2.42;;;1.60;;
62848;SDS011;48941;49.516;8.286;2023-03-24T10:34:21;2.65;;;1.50;;
62848;SDS011;48941;49.516;8.286;2023-03-24T10:36:55;1.27;;;1.10;;
62848;SDS011;48941;49.516;8.286;2023-03-24T10:39:25;0.70;;;0.70;;
62848;SDS011;48941;49.516;8.286;2023-03-24T10:42:11;1.38;;;0.95;;
62848;SDS011;48941;49.516;8.286;2023-03-24T10:44:42;1.35;;;0.70;;
62848;SDS011;48941;49.516;8.286;2023-03-24T10:47:09;2.05;;;0.70;;
62848;SDS011;48941;49.516;8.286;2023-03-24T10:49:52;1.95;;;0.82;;
62848;SDS011;48941;49.516;8.286;2023-03-24T10:52:21;3.38;;;0.80;;
62848;SDS011;48941;49.516;8.286;2023-03-24T10:54:54;1.13;;;0.90;;
62848;SDS011;48941;49.516;8.286;2023-03-24T10:57:24;1.05;;;1.00;;
62848;SDS011;48941;49.516;8.286;2023-03-24T10:59:55;0.95;;;0.80;;
62848;SDS011;48941;49.516;8.286;2023-03-24T11:02:26;0.82;;;0.82;;
62848;SDS011;48941;49.516;8.286;2023-03-24T11:04:59;1.00;;;0.90;;
62848;SDS011;48941;49.516;8.286;2023-03-24T11:07:29;1.53;;;1.10;;
62848;SDS011;48941;49.516;8.286;2023-03-24T11:10:03;2.35;;;1.00;;
62848;SDS011;48941;49.516;8.286;2023-03-24T11:12:34;1.23;;;1.10;;
62848;SDS011;48941;49.516;8.286;2023-03-24T11:15:12;1.52;;;1.00;;
62848;SDS011;48941;49.516;8.286;2023-03-24T11:17:51;1.42;;;1.00;;
62848;SDS011;48941;49.516;8.286;2023-03-24T11:20:25;0.90;;;0.90;;
62848;SDS011;48941;49.516;8.286;2023-03-24T11:23:01;1.40;;;0.95;;
62848;SDS011;48941;49.516;8.286;2023-03-24T11:25:31;2.33;;;1.25;;
62848;SDS011;48941;49.516;8.286;2023-03-24T11:28:00;1.10;;;0.98;;
62848;SDS011;48941;49.516;8.286;2023-03-24T11:30:32;1.67;;;1.35;;
62848;SDS011;48941;49.516;8.286;2023-03-24T11:33:02;2.45;;;1.02;;
62848;SDS011;48941;49.516;8.286;2023-03-24T11:35:33;1.35;;;0.93;;
62848;SDS011;48941;49.516;8.286;2023-03-24T11:38:27;2.05;;;0.90;;
62848;SDS011;48941;49.516;8.286;2023-03-24T11:40:57;1.15;;;0.90;;
62848;SDS011;48941;49.516;8.286;2023-03-24T11:43:27;1.67;;;1.10;;
62848;SDS011;48941;49.516;8.286;2023-03-24T11:45:57;2.33;;;1.20;;
62848;SDS011;48941;49.516;8.286;2023-03-24T11:48:30;2.58;;;1.00;;
62848;SDS011;48941;49.516;8.286;2023-03-24T11:51:09;2.38;;;1.00;;
62848;SDS011;48941;49.516;8.286;2023-03-24T11:53:40;1.10;;;1.00;;
62848;SDS011;48941;49.516;8.286;2023-03-24T11:56:14;1.98;;;0.90;;
62848;SDS011;48941;49.516;8.286;2023-03-24T11:58:50;1.13;;;1.05;;
62848;SDS011;48941;49.516;8.286;2023-03-24T12:01:26;1.88;;;1.13;;
62848;SDS011;48941;49.516;8.286;2023-03-24T12:04:02;3.17;;;1.63;;
62848;SDS011;48941;49.516;8.286;2023-03-24T12:06:51;1.48;;;1.33;;
62848;SDS011;48941;49.516;8.286;2023-03-24T12:09:28;3.13;;;1.50;;
62848;SDS011;48941;49.516;8.286;2023-03-24T12:12:18;3.53;;;1.60;;
62848;SDS011;48941;49.516;8.286;2023-03-24T12:14:56;2.17;;;1.30;;
62848;SDS011;48941;49.516;8.286;2023-03-24T12:17:56;3.88;;;1.80;;
62848;SDS011;48941;49.516;8.286;2023-03-24T12:20:34;2.13;;;1.48;;
62848;SDS011;48941;49.516;8.286;2023-03-24T12:23:11;2.85;;;1.70;;
62848;SDS011;48941;49.516;8.286;2023-03-24T12:25:57;2.83;;;1.85;;
62848;SDS011;48941;49.516;8.286;2023-03-24T12:28:42;2.03;;;1.80;;
62848;SDS011;48941;49.516;8.286;2023-03-24T12:37:30;4.95;;;2.00;;
62848;SDS011;48941;49.516;8.286;2023-03-24T12:40:19;3.42;;;1.98;;
62848;SDS011;48941;49.516;8.286;2023-03-24T12:43:10;3.58;;;2.10;;
62848;SDS011;48941;49.516;8.286;2023-03-24T12:45:48;1.90;;;1.80;;
62848;SDS011;48941;49.516;8.286;2023-03-24T12:48:37;2.90;;;2.00;;
62848;SDS011;48941;49.516;8.286;2023-03-24T12:51:20;3.08;;;2.30;;
62848;SDS011;48941;49.516;8.286;2023-03-24T12:54:01;3.90;;;2.00;;
62848;SDS011;48941;49.516;8.286;2023-03-24T12:56:40;3.00;;;2.15;;
62848;SDS011;48941;49.516;8.286;2023-03-24T12:59:13;3.58;;;2.13;;
62848;SDS011;48941;49.516;8.286;2023-03-24T13:01:44;3.75;;;2.20;;
62848;SDS011;48941;49.516;8.286;2023-03-24T13:04:18;2.97;;;1.92;;
62848;SDS011;48941;49.516;8.286;2023-03-24T13:06:50;3.92;;;2.10;;
62848;SDS011;48941;49.516;8.286;2023-03-24T13:09:26;2.38;;;1.92;;
62848;SDS011;48941;49.516;8.286;2023-03-24T13:12:09;2.67;;;2.00;;
62848;SDS011;48941;49.516;8.286;2023-03-24T13:14:45;3.20;;;1.98;;
62848;SDS011;48941;49.516;8.286;2023-03-24T13:17:20;4.03;;;2.20;;
62848;SDS011;48941;49.516;8.286;2023-03-24T13:19:51;2.38;;;1.95;;
62848;SDS011;48941;49.516;8.286;2023-03-24T13:22:22;2.42;;;1.90;;
62848;SDS011;48941;49.516;8.286;2023-03-24T13:24:51;2.97;;;2.00;;
62848;SDS011;48941;49.516;8.286;2023-03-24T13:27:23;4.25;;;2.10;;
62848;SDS011;48941;49.516;8.286;2023-03-24T13:30:01;4.97;;;1.77;;
62848;SDS011;48941;49.516;8.286;2023-03-24T13:35:11;3.15;;;1.63;;
62848;SDS011;48941;49.516;8.286;2023-03-24T13:37:45;5.95;;;1.70;;
62848;SDS011;48941;49.516;8.286;2023-03-24T13:40:19;5.80;;;1.80;;
62848;SDS011;48941;49.516;8.286;2023-03-24T13:42:53;3.97;;;1.70;;
62848;SDS011;48941;49.516;8.286;2023-03-24T13:45:25;5.35;;;1.80;;
62848;SDS011;48941;49.516;8.286;2023-03-24T13:48:02;2.45;;;1.77;;
62848;SDS011;48941;49.516;8.286;2023-03-24T13:50:33;4.67;;;1.70;;
62848;SDS011;48941;49.516;8.286;2023-03-24T13:53:04;4.10;;;1.70;;
62848;SDS011;48941;49.516;8.286;2023-03-24T13:55:34;6.47;;;2.20;;
62848;SDS011;48941;49.516;8.286;2023-03-24T13:58:11;6.25;;;1.80;;
62848;SDS011;48941;49.516;8.286;2023-03-24T14:01:05;5.13;;;1.75;;
62848;SDS011;48941;49.516;8.286;2023-03-24T14:03:44;3.25;;;1.63;;
62848;SDS011;48941;49.516;8.286;2023-03-24T14:06:14;2.97;;;1.60;;
62848;SDS011;48941;49.516;8.286;2023-03-24T14:08:53;4.65;;;2.00;;
62848;SDS011;48941;49.516;8.286;2023-03-24T14:14:35;4.63;;;1.70;;
62848;SDS011;48941;49.516;8.286;2023-03-24T14:17:24;3.05;;;1.55;;
62848;SDS011;48941;49.516;8.286;2023-03-24T14:22:41;3.10;;;1.45;;
62848;SDS011;48941;49.516;8.286;2023-03-24T14:25:18;3.10;;;1.58;;
62848;SDS011;48941;49.516;8.286;2023-03-24T14:27:50;3.15;;;1.50;;
62848;SDS011;48941;49.516;8.286;2023-03-24T14:30:21;8.02;;;1.88;;
62848;SDS011;48941;49.516;8.286;2023-03-24T14:32:51;3.90;;;1.70;;
62848;SDS011;48941;49.516;8.286;2023-03-24T14:35:28;6.32;;;1.73;;
62848;SDS011;48941;49.516;8.286;2023-03-24T14:38:00;2.10;;;1.42;;
62848;SDS011;48941;49.516;8.286;2023-03-24T14:40:34;4.43;;;1.63;;
62848;SDS011;48941;49.516;8.286;2023-03-24T14:43:11;3.72;;;1.30;;
62848;SDS011;48941;49.516;8.286;2023-03-24T14:45:55;2.97;;;1.55;;
62848;SDS011;48941;49.516;8.286;2023-03-24T14:48:30;4.82;;;2.20;;
62848;SDS011;48941;49.516;8.286;2023-03-24T14:53:46;4.80;;;1.75;;
62848;SDS011;48941;49.516;8.286;2023-03-24T14:56:15;6.35;;;1.70;;
62848;SDS011;48941;49.516;8.286;2023-03-24T14:58:44;3.65;;;1.70;;
62848;SDS011;48941;49.516;8.286;2023-03-24T15:01:18;6.68;;;1.70;;
62848;SDS011;48941;49.516;8.286;2023-03-24T15:03:50;5.55;;;1.50;;
62848;SDS011;48941;49.516;8.286;2023-03-24T15:06:25;7.13;;;1.60;;
62848;SDS011;48941;49.516;8.286;2023-03-24T15:08:53;7.45;;;1.40;;
62848;SDS011;48941;49.516;8.286;2023-03-24T15:11:23;4.50;;;1.30;;
62848;SDS011;48941;49.516;8.286;2023-03-24T15:13:54;2.25;;;1.40;;
62848;SDS011;48941;49.516;8.286;2023-03-24T15:16:26;2.60;;;1.30;;
62848;SDS011;48941;49.516;8.286;2023-03-24T15:18:56;5.00;;;1.65;;
62848;SDS011;48941;49.516;8.286;2023-03-24T15:21:29;2.53;;;1.38;;
62848;SDS011;48941;49.516;8.286;2023-03-24T15:24:27;1.48;;;1.20;;
62848;SDS011;48941;49.516;8.286;2023-03-24T15:29:52;4.97;;;1.50;;
62848;SDS011;48941;49.516;8.286;2023-03-24T15:32:24;4.50;;;1.50;;
62848;SDS011;48941;49.516;8.286;2023-03-24T15:34:58;5.15;;;1.52;;
62848;SDS011;48941;49.516;8.286;2023-03-24T15:37:32;2.47;;;1.35;;
62848;SDS011;48941;49.516;8.286;2023-03-24T15:40:06;4.45;;;1.40;;
62848;SDS011;48941;49.516;8.286;2023-03-24T15:42:50;4.70;;;1.27;;
62848;SDS011;48941;49.516;8.286;2023-03-24T15:45:20;2.25;;;1.40;;
62848;SDS011;48941;49.516;8.286;2023-03-24T15:50:28;3.50;;;1.50;;
62848;SDS011;48941;49.516;8.286;2023-03-24T15:52:59;8.38;;;1.75;;
62848;SDS011;48941;49.516;8.286;2023-03-24T15:55:29;11.88;;;2.20;;
62848;SDS011;48941;49.516;8.286;2023-03-24T15:58:00;6.63;;;1.80;;
62848;SDS011;48941;49.516;8.286;2023-03-24T16:00:30;5.20;;;1.40;;
62848;SDS011;48941;49.516;8.286;2023-03-24T16:03:06;7.03;;;1.80;;
62848;SDS011;48941;49.516;8.286;2023-03-24T16:05:35;4.43;;;1.75;;
62848;SDS011;48941;49.516;8.286;2023-03-24T16:08:22;2.42;;;1.25;;
62848;SDS011;48941;49.516;8.286;2023-03-24T16:10:57;5.55;;;1.75;;